sensor_id;sensor_type;location;lat;lon;timestamp;P1;durP1;ratioP1;P2;durP2;ratioP2
62724;SDS011;49026;52.600;4.694;2023-05-02T00:01:52;10.82;;;2.80;;
62724;SDS011;49026;52.600;4.694;2023-05-02T00:04:18;6.65;;;1.70;;
62724;SDS011;49026;52.600;4.694;2023-05-02T00:06:43;21.83;;;3.30;;
62724;SDS011;49026;52.600;4.694;2023-05-02T00:09:10;9.80;;;2.97;;
62724;SDS011;49026;52.600;4.694;2023-05-02T00:11:36;13.45;;;2.72;;
62724;SDS011;49026;52.600;4.694;2023-05-02T00:14:01;18.45;;;2.35;;
62724;SDS011;49026;52.600;4.694;2023-05-02T00:16:26;12.52;;;3.88;;
62724;SDS011;49026;52.600;4.694;2023-05-02T00:18:54;9.82;;;1.83;;
62724;SDS011;49026;52.600;4.694;2023-05-02T00:21:19;14.98;;;1.70;;
62724;SDS011;49026;52.600;4.694;2023-05-02T00:23:45;9.27;;;2.05;;
62724;SDS011;49026;52.600;4.694;2023-05-02T00:26:10;9.77;;;2.92;;
62724;SDS011;49026;52.600;4.694;2023-05-02T00:28:36;13.32;;;1.30;;
62724;SDS011;49026;52.600;4.694;2023-05-02T00:31:04;9.23;;;1.50;;
62724;SDS011;49026;52.600;4.694;2023-05-02T00:33:29;5.28;;;1.10;;
62724;SDS011;49026;52.600;4.694;2023-05-02T00:35:54;8.48;;;1.88;;
62724;SDS011;49026;52.600;4.694;2023-05-02T00:38:20;9.18;;;2.15;;
62724;SDS011;49026;52.600;4.694;2023-05-02T00:40:46;11.85;;;1.30;;
62724;SDS011;49026;52.600;4.694;2023-05-02T00:43:12;3.90;;;1.20;;
62724;SDS011;49026;52.600;4.694;2023-05-02T00:45:39;8.82;;;1.70;;
62724;SDS011;49026;52.600;4.694;2023-05-02T00:48:06;7.93;;;1.17;;
62724;SDS011;49026;52.600;4.694;2023-05-02T00:50:37;6.45;;;1.23;;
62724;SDS011;49026;52.600;4.694;2023-05-02T00:53:06;13.75;;;1.70;;
62724;SDS011;49026;52.600;4.694;2023-05-02T00:55:33;7.65;;;1.48;;
62724;SDS011;49026;52.600;4.694;2023-05-02T00:57:59;9.05;;;1.83;;
62724;SDS011;49026;52.600;4.694;2023-05-02T01:00:34;10.23;;;1.88;;
62724;SDS011;49026;52.600;4.694;2023-05-02T01:03:09;6.88;;;1.83;;
62724;SDS011;49026;52.600;4.694;2023-05-02T01:05:48;8.63;;;1.63;;
62724;SDS011;49026;52.600;4.694;2023-05-02T01:08:46;12.45;;;2.30;;
62724;SDS011;49026;52.600;4.694;2023-05-02T01:11:27;6.35;;;1.45;;
62724;SDS011;49026;52.600;4.694;2023-05-02T01:14:05;11.75;;;1.60;;
62724;SDS011;49026;52.600;4.694;2023-05-02T01:16:34;7.85;;;1.30;;
62724;SDS011;49026;52.600;4.694;2023-05-02T01:19:08;6.25;;;2.10;;
62724;SDS011;49026;52.600;4.694;2023-05-02T01:21:37;8.10;;;1.77;;
62724;SDS011;49026;52.600;4.694;2023-05-02T01:24:06;6.30;;;1.58;;
62724;SDS011;49026;52.600;4.694;2023-05-02T01:26:44;3.50;;;1.40;;
62724;SDS011;49026;52.600;4.694;2023-05-02T01:29:16;8.07;;;1.40;;
62724;SDS011;49026;52.600;4.694;2023-05-02T01:31:47;5.50;;;1.33;;
62724;SDS011;49026;52.600;4.694;2023-05-02T01:34:14;12.80;;;1.83;;
62724;SDS011;49026;52.600;4.694;2023-05-02T01:36:43;4.75;;;1.10;;
62724;SDS011;49026;52.600;4.694;2023-05-02T01:39:20;11.30;;;1.65;;
62724;SDS011;49026;52.600;4.694;2023-05-02T01:41:50;6.43;;;1.33;;
62724;SDS011;49026;52.600;4.694;2023-05-02T01:44:20;5.82;;;1.20;;
62724;SDS011;49026;52.600;4.694;2023-05-02T01:46:47;7.75;;;2.22;;
62724;SDS011;49026;52.600;4.694;2023-05-02T01:49:16;7.30;;;1.38;;
62724;SDS011;49026;52.600;4.694;2023-05-02T01:51:45;6.50;;;1.70;;
62724;SDS011;49026;52.600;4.694;2023-05-02T01:54:15;18.17;;;2.53;;
62724;SDS011;49026;52.600;4.694;2023-05-02T01:56:42;6.15;;;1.35;;
62724;SDS011;49026;52.600;4.694;2023-05-02T01:59:15;3.95;;;1.05;;
62724;SDS011;49026;52.600;4.694;2023-05-02T02:01:43;9.85;;;1.33;;
62724;SDS011;49026;52.600;4.694;2023-05-02T02:04:10;5.85;;;1.08;;
62724;SDS011;49026;52.600;4.694;2023-05-02T02:06:37;3.67;;;1.10;;
62724;SDS011;49026;52.600;4.694;2023-05-02T02:09:03;6.25;;;1.30;;
62724;SDS011;49026;52.600;4.694;2023-05-02T02:11:51;7.72;;;1.52;;
62724;SDS011;49026;52.600;4.694;2023-05-02T02:14:24;11.02;;;1.35;;
62724;SDS011;49026;52.600;4.694;2023-05-02T02:16:52;12.90;;;1.73;;
62724;SDS011;49026;52.600;4.694;2023-05-02T02:19:20;11.30;;;1.30;;
62724;SDS011;49026;52.600;4.694;2023-05-02T02:21:47;5.32;;;1.17;;
62724;SDS011;49026;52.600;4.694;2023-05-02T02:24:15;8.25;;;1.80;;
62724;SDS011;49026;52.600;4.694;2023-05-02T02:29:12;5.38;;;1.63;;
62724;SDS011;49026;52.600;4.694;2023-05-02T02:31:38;12.52;;;1.58;;
62724;SDS011;49026;52.600;4.694;2023-05-02T02:34:03;16.08;;;1.90;;
62724;SDS011;49026;52.600;4.694;2023-05-02T02:42:02;4.82;;;1.50;;
62724;SDS011;49026;52.600;4.694;2023-05-02T02:44:39;12.82;;;1.98;;
62724;SDS011;49026;52.600;4.694;2023-05-02T02:47:35;8.00;;;1.80;;
62724;SDS011;49026;52.600;4.694;2023-05-02T02:50:30;9.77;;;1.85;;
62724;SDS011;49026;52.600;4.694;2023-05-02T02:53:13;3.03;;;0.85;;
62724;SDS011;49026;52.600;4.694;2023-05-02T02:58:30;15.10;;;2.20;;
62724;SDS011;49026;52.600;4.694;2023-05-02T03:01:08;13.48;;;2.00;;
62724;SDS011;49026;52.600;4.694;2023-05-02T03:03:42;8.27;;;1.77;;
62724;SDS011;49026;52.600;4.694;2023-05-02T03:06:08;13.07;;;1.95;;
62724;SDS011;49026;52.600;4.694;2023-05-02T03:08:39;18.75;;;2.10;;
62724;SDS011;49026;52.600;4.694;2023-05-02T03:11:05;9.35;;;2.33;;
62724;SDS011;49026;52.600;4.694;2023-05-02T03:13:34;10.50;;;2.30;;
62724;SDS011;49026;52.600;4.694;2023-05-02T03:18:47;8.65;;;2.10;;
62724;SDS011;49026;52.600;4.694;2023-05-02T03:21:12;14.38;;;2.58;;
62724;SDS011;49026;52.600;4.694;2023-05-02T03:23:45;12.02;;;2.72;;
62724;SDS011;49026;52.600;4.694;2023-05-02T03:26:13;19.40;;;3.17;;
62724;SDS011;49026;52.600;4.694;2023-05-02T03:28:39;9.98;;;2.65;;
62724;SDS011;49026;52.600;4.694;2023-05-02T03:31:04;17.20;;;2.78;;
62724;SDS011;49026;52.600;4.694;2023-05-02T03:33:29;15.48;;;2.80;;
62724;SDS011;49026;52.600;4.694;2023-05-02T03:35:55;10.63;;;1.92;;
62724;SDS011;49026;52.600;4.694;2023-05-02T03:38:20;18.10;;;2.70;;
62724;SDS011;49026;52.600;4.694;2023-05-02T03:40:48;15.45;;;2.60;;
62724;SDS011;49026;52.600;4.694;2023-05-02T03:43:18;9.10;;;2.10;;
62724;SDS011;49026;52.600;4.694;2023-05-02T03:45:44;15.70;;;2.67;;
62724;SDS011;49026;52.600;4.694;2023-05-02T03:48:09;15.00;;;2.58;;
62724;SDS011;49026;52.600;4.694;2023-05-02T03:50:34;15.95;;;2.53;;
62724;SDS011;49026;52.600;4.694;2023-05-02T03:53:02;11.55;;;2.35;;
62724;SDS011;49026;52.600;4.694;2023-05-02T03:55:27;12.93;;;2.65;;
62724;SDS011;49026;52.600;4.694;2023-05-02T03:57:53;10.35;;;2.20;;
62724;SDS011;49026;52.600;4.694;2023-05-02T04:00:18;15.00;;;2.55;;
62724;SDS011;49026;52.600;4.694;2023-05-02T04:02:43;19.33;;;3.30;;
62724;SDS011;49026;52.600;4.694;2023-05-02T04:05:09;14.43;;;2.88;;
62724;SDS011;49026;52.600;4.694;2023-05-02T04:07:34;11.75;;;3.10;;
62724;SDS011;49026;52.600;4.694;2023-05-02T04:10:00;15.18;;;2.20;;
62724;SDS011;49026;52.600;4.694;2023-05-02T04:12:25;14.10;;;2.80;;
62724;SDS011;49026;52.600;4.694;2023-05-02T04:14:50;22.00;;;2.70;;
62724;SDS011;49026;52.600;4.694;2023-05-02T04:17:19;9.65;;;1.88;;
62724;SDS011;49026;52.600;4.694;2023-05-02T04:19:45;11.82;;;2.55;;
62724;SDS011;49026;52.600;4.694;2023-05-02T04:22:13;12.45;;;2.97;;
62724;SDS011;49026;52.600;4.694;2023-05-02T04:24:38;13.88;;;2.10;;
62724;SDS011;49026;52.600;4.694;2023-05-02T04:27:03;10.75;;;2.50;;
62724;SDS011;49026;52.600;4.694;2023-05-02T04:29:29;13.48;;;1.90;;
62724;SDS011;49026;52.600;4.694;2023-05-02T04:31:54;10.60;;;1.73;;
62724;SDS011;49026;52.600;4.694;2023-05-02T04:34:20;10.40;;;2.00;;
62724;SDS011;49026;52.600;4.694;2023-05-02T04:36:45;15.48;;;2.60;;
62724;SDS011;49026;52.600;4.694;2023-05-02T04:39:13;4.78;;;1.50;;
62724;SDS011;49026;52.600;4.694;2023-05-02T04:41:38;11.88;;;2.63;;
62724;SDS011;49026;52.600;4.694;2023-05-02T04:44:06;6.22;;;1.77;;
62724;SDS011;49026;52.600;4.694;2023-05-02T04:46:31;9.68;;;2.70;;
62724;SDS011;49026;52.600;4.694;2023-05-02T04:48:56;13.02;;;2.90;;
62724;SDS011;49026;52.600;4.694;2023-05-02T04:51:22;8.32;;;2.03;;
62724;SDS011;49026;52.600;4.694;2023-05-02T04:53:50;5.15;;;1.33;;
62724;SDS011;49026;52.600;4.694;2023-05-02T04:56:15;8.82;;;1.80;;
62724;SDS011;49026;52.600;4.694;2023-05-02T04:58:43;5.63;;;1.17;;
62724;SDS011;49026;52.600;4.694;2023-05-02T05:01:08;8.32;;;1.60;;
62724;SDS011;49026;52.600;4.694;2023-05-02T05:03:33;9.63;;;1.73;;
62724;SDS011;49026;52.600;4.694;2023-05-02T05:05:59;19.05;;;1.77;;
62724;SDS011;49026;52.600;4.694;2023-05-02T05:08:26;9.23;;;2.60;;
62724;SDS011;49026;52.600;4.694;2023-05-02T05:10:51;7.68;;;1.85;;
62724;SDS011;49026;52.600;4.694;2023-05-02T05:13:17;10.80;;;1.55;;
62724;SDS011;49026;52.600;4.694;2023-05-02T05:15:44;8.98;;;1.98;;
62724;SDS011;49026;52.600;4.694;2023-05-02T05:18:11;7.30;;;1.90;;
62724;SDS011;49026;52.600;4.694;2023-05-02T05:20:36;12.25;;;2.45;;
62724;SDS011;49026;52.600;4.694;2023-05-02T05:23:02;5.88;;;1.67;;
62724;SDS011;49026;52.600;4.694;2023-05-02T05:25:27;10.50;;;2.10;;
62724;SDS011;49026;52.600;4.694;2023-05-02T05:27:53;6.57;;;1.67;;
62724;SDS011;49026;52.600;4.694;2023-05-02T05:30:21;6.13;;;1.45;;
62724;SDS011;49026;52.600;4.694;2023-05-02T05:32:50;14.40;;;1.98;;
62724;SDS011;49026;52.600;4.694;2023-05-02T05:35:17;10.20;;;2.17;;
62724;SDS011;49026;52.600;4.694;2023-05-02T05:37:43;5.85;;;1.50;;
62724;SDS011;49026;52.600;4.694;2023-05-02T05:40:10;12.35;;;2.13;;
62724;SDS011;49026;52.600;4.694;2023-05-02T05:42:35;4.70;;;1.58;;
62724;SDS011;49026;52.600;4.694;2023-05-02T05:45:01;7.22;;;1.90;;
62724;SDS011;49026;52.600;4.694;2023-05-02T05:47:28;9.25;;;1.63;;
62724;SDS011;49026;52.600;4.694;2023-05-02T05:49:54;3.58;;;1.10;;
62724;SDS011;49026;52.600;4.694;2023-05-02T05:52:20;11.77;;;1.38;;
62724;SDS011;49026;52.600;4.694;2023-05-02T05:54:46;7.22;;;1.65;;
62724;SDS011;49026;52.600;4.694;2023-05-02T05:57:11;9.00;;;1.77;;
62724;SDS011;49026;52.600;4.694;2023-05-02T05:59:37;6.97;;;1.83;;
62724;SDS011;49026;52.600;4.694;2023-05-02T06:02:04;4.57;;;1.63;;
62724;SDS011;49026;52.600;4.694;2023-05-02T06:04:30;8.95;;;1.15;;
62724;SDS011;49026;52.600;4.694;2023-05-02T06:06:55;7.40;;;1.60;;
62724;SDS011;49026;52.600;4.694;2023-05-02T06:09:21;4.90;;;2.13;;
62724;SDS011;49026;52.600;4.694;2023-05-02T06:11:46;5.25;;;1.30;;
62724;SDS011;49026;52.600;4.694;2023-05-02T06:14:12;4.18;;;1.40;;
62724;SDS011;49026;52.600;4.694;2023-05-02T06:16:37;11.35;;;1.30;;
62724;SDS011;49026;52.600;4.694;2023-05-02T06:19:02;13.27;;;1.55;;
62724;SDS011;49026;52.600;4.694;2023-05-02T06:21:28;11.02;;;1.15;;
62724;SDS011;49026;52.600;4.694;2023-05-02T06:23:53;2.17;;;0.80;;
62724;SDS011;49026;52.600;4.694;2023-05-02T06:26:18;5.30;;;1.15;;
62724;SDS011;49026;52.600;4.694;2023-05-02T06:28:44;6.10;;;1.70;;
62724;SDS011;49026;52.600;4.694;2023-05-02T06:31:11;4.65;;;1.00;;
62724;SDS011;49026;52.600;4.694;2023-05-02T06:33:37;10.13;;;1.85;;
62724;SDS011;49026;52.600;4.694;2023-05-02T06:36:02;4.32;;;1.23;;
62724;SDS011;49026;52.600;4.694;2023-05-02T06:38:28;7.75;;;1.75;;
62724;SDS011;49026;52.600;4.694;2023-05-02T06:40:56;9.98;;;1.73;;
62724;SDS011;49026;52.600;4.694;2023-05-02T06:43:24;3.90;;;1.08;;
62724;SDS011;49026;52.600;4.694;2023-05-02T06:45:51;8.43;;;1.35;;
62724;SDS011;49026;52.600;4.694;2023-05-02T06:48:18;5.35;;;0.95;;
62724;SDS011;49026;52.600;4.694;2023-05-02T06:50:43;4.47;;;1.10;;
62724;SDS011;49026;52.600;4.694;2023-05-02T06:53:11;10.05;;;1.30;;
62724;SDS011;49026;52.600;4.694;2023-05-02T06:55:39;8.80;;;1.85;;
62724;SDS011;49026;52.600;4.694;2023-05-02T06:58:04;3.90;;;1.27;;
62724;SDS011;49026;52.600;4.694;2023-05-02T07:00:32;7.10;;;1.40;;
62724;SDS011;49026;52.600;4.694;2023-05-02T07:02:59;2.00;;;0.70;;
62724;SDS011;49026;52.600;4.694;2023-05-02T07:05:25;2.20;;;1.40;;
62724;SDS011;49026;52.600;4.694;2023-05-02T07:07:52;2.00;;;1.23;;
62724;SDS011;49026;52.600;4.694;2023-05-02T07:10:17;6.40;;;1.05;;
62724;SDS011;49026;52.600;4.694;2023-05-02T07:12:42;4.78;;;1.23;;
62724;SDS011;49026;52.600;4.694;2023-05-02T13:46:04;4.97;;;1.45;;
62724;SDS011;49026;52.600;4.694;2023-05-02T13:48:30;4.45;;;1.20;;
62724;SDS011;49026;52.600;4.694;2023-05-02T13:50:55;5.53;;;1.13;;
62724;SDS011;49026;52.600;4.694;2023-05-02T13:53:20;6.70;;;1.75;;
62724;SDS011;49026;52.600;4.694;2023-05-02T13:55:46;1.25;;;0.77;;
62724;SDS011;49026;52.600;4.694;2023-05-02T13:58:11;2.42;;;0.98;;
62724;SDS011;49026;52.600;4.694;2023-05-02T14:00:38;3.78;;;1.23;;
62724;SDS011;49026;52.600;4.694;2023-05-02T14:03:04;4.68;;;0.90;;
62724;SDS011;49026;52.600;4.694;2023-05-02T14:05:29;3.17;;;0.90;;
62724;SDS011;49026;52.600;4.694;2023-05-02T14:07:57;5.57;;;1.42;;
62724;SDS011;49026;52.600;4.694;2023-05-02T14:10:22;3.92;;;0.90;;
62724;SDS011;49026;52.600;4.694;2023-05-02T14:12:49;7.93;;;1.13;;
62724;SDS011;49026;52.600;4.694;2023-05-02T14:15:17;4.65;;;1.23;;
62724;SDS011;49026;52.600;4.694;2023-05-02T14:17:45;4.38;;;1.02;;
62724;SDS011;49026;52.600;4.694;2023-05-02T14:20:13;4.32;;;1.15;;
62724;SDS011;49026;52.600;4.694;2023-05-02T14:22:38;5.28;;;1.30;;
62724;SDS011;49026;52.600;4.694;2023-05-02T14:25:04;5.50;;;1.63;;
62724;SDS011;49026;52.600;4.694;2023-05-02T14:27:29;3.72;;;1.20;;
62724;SDS011;49026;52.600;4.694;2023-05-02T14:29:57;4.32;;;1.23;;
62724;SDS011;49026;52.600;4.694;2023-05-02T14:32:26;8.95;;;0.98;;
62724;SDS011;49026;52.600;4.694;2023-05-02T14:34:52;5.68;;;1.30;;
62724;SDS011;49026;52.600;4.694;2023-05-02T14:37:17;2.85;;;1.00;;
62724;SDS011;49026;52.600;4.694;2023-05-02T14:39:42;3.40;;;1.10;;
62724;SDS011;49026;52.600;4.694;2023-05-02T14:42:09;2.28;;;1.15;;
62724;SDS011;49026;52.600;4.694;2023-05-02T14:44:35;4.22;;;1.00;;
62724;SDS011;49026;52.600;4.694;2023-05-02T14:47:00;8.30;;;1.10;;
62724;SDS011;49026;52.600;4.694;2023-05-02T14:49:26;4.43;;;1.33;;
62724;SDS011;49026;52.600;4.694;2023-05-02T14:51:51;2.08;;;1.00;;
62724;SDS011;49026;52.600;4.694;2023-05-02T14:54:17;5.47;;;1.75;;
62724;SDS011;49026;52.600;4.694;2023-05-02T14:56:44;5.13;;;0.90;;
62724;SDS011;49026;52.600;4.694;2023-05-02T14:59:12;3.08;;;0.95;;
62724;SDS011;49026;52.600;4.694;2023-05-02T15:01:37;2.75;;;0.90;;
62724;SDS011;49026;52.600;4.694;2023-05-02T15:04:05;5.07;;;1.00;;
62724;SDS011;49026;52.600;4.694;2023-05-02T15:06:30;6.43;;;0.80;;
62724;SDS011;49026;52.600;4.694;2023-05-02T15:08:55;6.35;;;0.95;;
62724;SDS011;49026;52.600;4.694;2023-05-02T15:11:23;5.18;;;1.25;;
62724;SDS011;49026;52.600;4.694;2023-05-02T15:13:49;5.35;;;1.08;;
62724;SDS011;49026;52.600;4.694;2023-05-02T15:16:14;2.85;;;1.08;;
62724;SDS011;49026;52.600;4.694;2023-05-02T15:18:40;4.63;;;1.02;;
62724;SDS011;49026;52.600;4.694;2023-05-02T15:21:05;2.78;;;0.80;;
62724;SDS011;49026;52.600;4.694;2023-05-02T15:23:30;6.00;;;0.90;;
62724;SDS011;49026;52.600;4.694;2023-05-02T15:25:58;1.70;;;0.70;;
62724;SDS011;49026;52.600;4.694;2023-05-02T15:28:24;4.60;;;0.93;;
62724;SDS011;49026;52.600;4.694;2023-05-02T15:30:49;5.05;;;1.05;;
62724;SDS011;49026;52.600;4.694;2023-05-02T15:33:19;4.75;;;0.80;;
62724;SDS011;49026;52.600;4.694;2023-05-02T15:35:51;7.15;;;0.93;;
62724;SDS011;49026;52.600;4.694;2023-05-02T15:38:19;4.45;;;0.80;;
62724;SDS011;49026;52.600;4.694;2023-05-02T15:40:52;3.15;;;0.70;;
62724;SDS011;49026;52.600;4.694;2023-05-02T15:43:18;2.83;;;0.70;;
62724;SDS011;49026;52.600;4.694;2023-05-02T15:45:45;0.93;;;0.60;;
62724;SDS011;49026;52.600;4.694;2023-05-02T15:48:14;3.72;;;0.80;;
62724;SDS011;49026;52.600;4.694;2023-05-02T15:50:41;2.20;;;0.80;;
62724;SDS011;49026;52.600;4.694;2023-05-02T15:53:06;3.47;;;1.42;;
62724;SDS011;49026;52.600;4.694;2023-05-02T15:55:34;1.95;;;0.60;;
62724;SDS011;49026;52.600;4.694;2023-05-02T15:58:00;5.72;;;1.05;;
62724;SDS011;49026;52.600;4.694;2023-05-02T16:00:28;2.47;;;0.88;;
62724;SDS011;49026;52.600;4.694;2023-05-02T16:02:53;4.38;;;0.70;;
62724;SDS011;49026;52.600;4.694;2023-05-02T16:05:19;3.25;;;0.75;;
62724;SDS011;49026;52.600;4.694;2023-05-02T16:07:44;4.00;;;0.70;;
62724;SDS011;49026;52.600;4.694;2023-05-02T16:10:10;4.93;;;0.98;;
62724;SDS011;49026;52.600;4.694;2023-05-02T16:12:38;10.88;;;2.72;;
62724;SDS011;49026;52.600;4.694;2023-05-02T16:15:03;2.00;;;0.75;;
62724;SDS011;49026;52.600;4.694;2023-05-02T16:17:29;3.13;;;0.60;;
62724;SDS011;49026;52.600;4.694;2023-05-02T16:19:57;1.48;;;0.95;;
62724;SDS011;49026;52.600;4.694;2023-05-02T16:22:23;4.25;;;0.70;;
62724;SDS011;49026;52.600;4.694;2023-05-02T16:24:50;4.13;;;0.90;;
62724;SDS011;49026;52.600;4.694;2023-05-02T16:27:15;2.33;;;0.80;;
62724;SDS011;49026;52.600;4.694;2023-05-02T16:29:40;3.67;;;0.85;;
62724;SDS011;49026;52.600;4.694;2023-05-02T16:32:08;3.22;;;0.63;;
62724;SDS011;49026;52.600;4.694;2023-05-02T16:34:33;6.32;;;1.00;;
62724;SDS011;49026;52.600;4.694;2023-05-02T16:37:02;4.30;;;0.73;;
62724;SDS011;49026;52.600;4.694;2023-05-02T16:39:27;1.55;;;0.50;;
62724;SDS011;49026;52.600;4.694;2023-05-02T16:41:52;4.28;;;0.80;;
62724;SDS011;49026;52.600;4.694;2023-05-02T16:44:18;0.57;;;0.50;;
62724;SDS011;49026;52.600;4.694;2023-05-02T16:46:43;5.10;;;0.85;;
62724;SDS011;49026;52.600;4.694;2023-05-02T16:49:09;1.42;;;0.52;;
62724;SDS011;49026;52.600;4.694;2023-05-02T16:51:34;2.25;;;0.70;;
62724;SDS011;49026;52.600;4.694;2023-05-02T16:53:59;0.40;;;0.40;;
62724;SDS011;49026;52.600;4.694;2023-05-02T16:56:24;3.60;;;0.82;;
62724;SDS011;49026;52.600;4.694;2023-05-02T16:58:50;2.30;;;0.80;;
62724;SDS011;49026;52.600;4.694;2023-05-02T17:01:15;2.17;;;0.88;;
62724;SDS011;49026;52.600;4.694;2023-05-02T17:03:45;4.72;;;0.70;;
62724;SDS011;49026;52.600;4.694;2023-05-02T17:06:10;2.75;;;0.60;;
62724;SDS011;49026;52.600;4.694;2023-05-02T17:08:36;6.70;;;0.90;;
62724;SDS011;49026;52.600;4.694;2023-05-02T17:11:03;1.45;;;0.70;;
62724;SDS011;49026;52.600;4.694;2023-05-02T17:13:31;1.00;;;0.52;;
62724;SDS011;49026;52.600;4.694;2023-05-02T17:15:57;1.98;;;0.77;;
62724;SDS011;49026;52.600;4.694;2023-05-02T17:18:23;1.95;;;0.60;;
62724;SDS011;49026;52.600;4.694;2023-05-02T17:20:52;1.05;;;0.50;;
62724;SDS011;49026;52.600;4.694;2023-05-02T17:23:18;2.50;;;0.75;;
62724;SDS011;49026;52.600;4.694;2023-05-02T17:25:44;3.70;;;0.88;;
62724;SDS011;49026;52.600;4.694;2023-05-02T17:28:09;3.63;;;1.00;;
62724;SDS011;49026;52.600;4.694;2023-05-02T17:30:34;3.33;;;1.05;;
62724;SDS011;49026;52.600;4.694;2023-05-02T17:33:00;4.20;;;1.25;;
62724;SDS011;49026;52.600;4.694;2023-05-02T17:35:25;5.40;;;0.93;;
62724;SDS011;49026;52.600;4.694;2023-05-02T17:37:55;2.03;;;0.70;;
62724;SDS011;49026;52.600;4.694;2023-05-02T17:40:23;2.92;;;1.00;;
62724;SDS011;49026;52.600;4.694;2023-05-02T17:42:49;2.15;;;0.90;;
62724;SDS011;49026;52.600;4.694;2023-05-02T17:45:14;5.50;;;1.42;;
62724;SDS011;49026;52.600;4.694;2023-05-02T17:47:40;5.95;;;1.25;;
62724;SDS011;49026;52.600;4.694;2023-05-02T17:50:06;2.60;;;1.30;;
62724;SDS011;49026;52.600;4.694;2023-05-02T17:52:32;4.63;;;1.23;;
62724;SDS011;49026;52.600;4.694;2023-05-02T17:55:01;3.13;;;1.35;;
62724;SDS011;49026;52.600;4.694;2023-05-02T17:57:27;3.30;;;1.02;;
62724;SDS011;49026;52.600;4.694;2023-05-02T17:59:52;4.93;;;2.00;;
62724;SDS011;49026;52.600;4.694;2023-05-02T18:02:22;6.18;;;2.70;;
62724;SDS011;49026;52.600;4.694;2023-05-02T18:04:48;7.43;;;1.80;;
62724;SDS011;49026;52.600;4.694;2023-05-02T18:07:16;5.97;;;2.50;;
62724;SDS011;49026;52.600;4.694;2023-05-02T18:09:47;5.90;;;2.08;;
62724;SDS011;49026;52.600;4.694;2023-05-02T18:12:13;2.15;;;1.02;;
62724;SDS011;49026;52.600;4.694;2023-05-02T18:14:39;2.60;;;1.00;;
62724;SDS011;49026;52.600;4.694;2023-05-02T18:17:04;1.35;;;0.82;;
62724;SDS011;49026;52.600;4.694;2023-05-02T18:19:33;7.97;;;1.25;;
62724;SDS011;49026;52.600;4.694;2023-05-02T18:21:58;4.55;;;1.58;;
62724;SDS011;49026;52.600;4.694;2023-05-02T18:24:24;2.58;;;1.00;;
62724;SDS011;49026;52.600;4.694;2023-05-02T18:26:49;6.22;;;1.38;;
62724;SDS011;49026;52.600;4.694;2023-05-02T18:29:17;5.45;;;1.13;;
62724;SDS011;49026;52.600;4.694;2023-05-02T18:31:42;5.75;;;1.23;;
62724;SDS011;49026;52.600;4.694;2023-05-02T18:34:10;9.32;;;1.92;;
62724;SDS011;49026;52.600;4.694;2023-05-02T18:36:35;2.90;;;1.35;;
62724;SDS011;49026;52.600;4.694;2023-05-02T18:39:01;5.32;;;1.25;;
62724;SDS011;49026;52.600;4.694;2023-05-02T18:41:26;6.00;;;1.52;;
62724;SDS011;49026;52.600;4.694;2023-05-02T18:43:54;4.22;;;1.13;;
62724;SDS011;49026;52.600;4.694;2023-05-02T18:46:19;6.85;;;1.55;;
62724;SDS011;49026;52.600;4.694;2023-05-02T18:48:45;3.60;;;1.20;;
62724;SDS011;49026;52.600;4.694;2023-05-02T18:51:10;4.25;;;1.15;;
62724;SDS011;49026;52.600;4.694;2023-05-02T18:53:38;3.88;;;1.00;;
62724;SDS011;49026;52.600;4.694;2023-05-02T18:56:10;4.50;;;0.95;;
62724;SDS011;49026;52.600;4.694;2023-05-02T18:58:36;3.13;;;1.27;;
62724;SDS011;49026;52.600;4.694;2023-05-02T19:01:13;3.33;;;1.20;;
62724;SDS011;49026;52.600;4.694;2023-05-02T19:03:40;2.88;;;1.30;;
62724;SDS011;49026;52.600;4.694;2023-05-02T19:06:08;3.95;;;1.77;;
62724;SDS011;49026;52.600;4.694;2023-05-02T19:08:34;3.20;;;1.20;;
62724;SDS011;49026;52.600;4.694;2023-05-02T19:10:59;2.90;;;1.05;;
62724;SDS011;49026;52.600;4.694;2023-05-02T19:13:25;3.35;;;1.63;;
62724;SDS011;49026;52.600;4.694;2023-05-02T19:15:52;3.60;;;1.67;;
62724;SDS011;49026;52.600;4.694;2023-05-02T19:18:17;2.10;;;1.35;;
62724;SDS011;49026;52.600;4.694;2023-05-02T19:20:47;2.73;;;1.40;;
62724;SDS011;49026;52.600;4.694;2023-05-02T19:23:13;7.00;;;1.75;;
62724;SDS011;49026;52.600;4.694;2023-05-02T19:28:10;3.15;;;1.30;;
62724;SDS011;49026;52.600;4.694;2023-05-02T19:30:38;6.05;;;1.50;;
62724;SDS011;49026;52.600;4.694;2023-05-02T19:33:05;3.83;;;1.50;;
62724;SDS011;49026;52.600;4.694;2023-05-02T19:35:31;6.10;;;1.70;;
62724;SDS011;49026;52.600;4.694;2023-05-02T19:37:59;6.00;;;1.83;;
62724;SDS011;49026;52.600;4.694;2023-05-02T19:40:24;6.75;;;1.90;;
62724;SDS011;49026;52.600;4.694;2023-05-02T19:42:50;5.80;;;2.30;;
62724;SDS011;49026;52.600;4.694;2023-05-02T19:45:17;6.03;;;2.03;;
62724;SDS011;49026;52.600;4.694;2023-05-02T19:47:45;2.42;;;1.58;;
62724;SDS011;49026;52.600;4.694;2023-05-02T19:50:11;4.60;;;1.60;;
62724;SDS011;49026;52.600;4.694;2023-05-02T19:52:39;3.08;;;1.50;;
62724;SDS011;49026;52.600;4.694;2023-05-02T19:55:06;4.18;;;1.40;;
62724;SDS011;49026;52.600;4.694;2023-05-02T19:57:42;3.33;;;2.03;;
62724;SDS011;49026;52.600;4.694;2023-05-02T20:00:08;5.25;;;1.90;;
62724;SDS011;49026;52.600;4.694;2023-05-02T20:02:36;6.40;;;1.73;;
62724;SDS011;49026;52.600;4.694;2023-05-02T20:05:04;2.83;;;1.35;;
62724;SDS011;49026;52.600;4.694;2023-05-02T20:07:30;2.15;;;1.33;;
62724;SDS011;49026;52.600;4.694;2023-05-02T20:09:55;7.78;;;2.13;;
62724;SDS011;49026;52.600;4.694;2023-05-02T20:12:21;3.95;;;1.50;;
62724;SDS011;49026;52.600;4.694;2023-05-02T20:14:49;3.05;;;1.17;;
62724;SDS011;49026;52.600;4.694;2023-05-02T20:17:19;4.70;;;1.65;;
62724;SDS011;49026;52.600;4.694;2023-05-02T20:19:44;3.80;;;1.50;;
62724;SDS011;49026;52.600;4.694;2023-05-02T20:22:12;3.85;;;1.67;;
62724;SDS011;49026;52.600;4.694;2023-05-02T20:24:37;1.55;;;1.33;;
62724;SDS011;49026;52.600;4.694;2023-05-02T20:27:03;6.10;;;1.88;;
62724;SDS011;49026;52.600;4.694;2023-05-02T20:29:30;25.48;;;3.13;;
62724;SDS011;49026;52.600;4.694;2023-05-02T20:31:55;6.93;;;2.28;;
62724;SDS011;49026;52.600;4.694;2023-05-02T20:34:21;6.18;;;2.40;;
62724;SDS011;49026;52.600;4.694;2023-05-02T20:36:46;6.15;;;1.98;;
62724;SDS011;49026;52.600;4.694;2023-05-02T20:39:11;5.97;;;1.90;;
62724;SDS011;49026;52.600;4.694;2023-05-02T20:41:37;8.02;;;2.10;;
62724;SDS011;49026;52.600;4.694;2023-05-02T20:44:02;5.20;;;1.80;;
62724;SDS011;49026;52.600;4.694;2023-05-02T20:46:28;10.40;;;2.45;;
62724;SDS011;49026;52.600;4.694;2023-05-02T20:48:53;6.35;;;2.33;;
62724;SDS011;49026;52.600;4.694;2023-05-02T20:51:19;4.18;;;2.25;;
62724;SDS011;49026;52.600;4.694;2023-05-02T20:53:45;8.43;;;2.55;;
62724;SDS011;49026;52.600;4.694;2023-05-02T20:56:12;11.68;;;2.42;;
62724;SDS011;49026;52.600;4.694;2023-05-02T20:58:38;7.57;;;4.13;;
62724;SDS011;49026;52.600;4.694;2023-05-02T21:01:03;5.97;;;2.65;;
62724;SDS011;49026;52.600;4.694;2023-05-02T21:03:29;8.80;;;2.45;;
62724;SDS011;49026;52.600;4.694;2023-05-02T21:05:55;6.68;;;2.53;;
62724;SDS011;49026;52.600;4.694;2023-05-02T21:08:23;6.38;;;2.72;;
62724;SDS011;49026;52.600;4.694;2023-05-02T21:10:49;8.07;;;2.70;;
62724;SDS011;49026;52.600;4.694;2023-05-02T21:13:15;7.63;;;2.28;;
62724;SDS011;49026;52.600;4.694;2023-05-02T21:15:40;10.00;;;2.88;;
62724;SDS011;49026;52.600;4.694;2023-05-02T21:18:06;5.75;;;2.83;;
62724;SDS011;49026;52.600;4.694;2023-05-02T21:20:32;7.40;;;2.55;;
62724;SDS011;49026;52.600;4.694;2023-05-02T21:25:27;3.00;;;2.17;;
62724;SDS011;49026;52.600;4.694;2023-05-02T21:27:57;6.47;;;2.47;;
62724;SDS011;49026;52.600;4.694;2023-05-02T21:30:24;3.60;;;2.35;;
62724;SDS011;49026;52.600;4.694;2023-05-02T21:32:50;6.22;;;2.50;;
62724;SDS011;49026;52.600;4.694;2023-05-02T21:35:15;6.13;;;2.55;;